TRAVEL WEATHER INFO - USA

NOAA Site Locator - Search for Station Information

CITY Forecast Link METAR Identifier Last Updated Temperature Dew Point Humidity Pressure Wind Direction Wind Speed Wind Gust Weather Rain/hr Google Maps
Albuqueque WEATHER KABQ 12/02/2019 16:52 48.2 19.4 32 30.22 N 0 0 Broken Clouds --- Albuquerque, NM Map
Anchorage WEATHER PAED 12/02/2019 17:04 24.8 19.4 80 29.13 W 4 4 --- Anchorage, AK Map
Atlanta WEATHER KATL 12/02/2019 16:52 41.0 24.8 52 30.00 WNW 12 12 Few Clouds --- ATLANTA, GA Map
Birmingham WEATHER KBHM 12/02/2019 16:53 41.0 24.8 52 30.12 NNW 10 10 Overcast --- Birmingham, AL Map
Boston WEATHER KBOS 12/02/2019 16:54 35.6 32.0 87 29.56 N 21 35 0.01 BOSTON, MA Map
Cheyenne WEATHER KCYS 12/02/2019 16:53 48.2 24.8 40 30.03 W 18 18 Clear --- Cheyenne, WY Map
Chicago O'Hare WEATHER KORD 12/02/2019 16:51 32.0 26.6 80 30.05 WNW 10 10 Overcast --- CHICAGO, IL Map
Colorado Springs WEATHER KCOS 12/02/2019 16:54 62.6 10.4 13 30.02 WNW 16 21 Broken Clouds --- Colo. Springs, CO Map
Dallas WEATHER KADS 12/02/2019 16:47 55.4 24.8 30 30.21 W 4 4 Few Clouds --- Dallas, TX Map
Denver WEATHER KDEN 12/02/2019 16:53 33.8 24.8 69 30.02 SSE 3 3 Scattered Clouds --- DENVER, CO Map
Detroit WEATHER KDET 12/02/2019 16:53 33.8 28.4 80 29.91 NW 10 10 Overcast --- Detroit, MI Map
Dover WEATHER KDOV 12/02/2019 16:56 39.2 32.0 75 29.54 NW 13 13 Overcast --- DOVER, DE Map
Fort Lauderdale WEATHER KFXE 12/02/2019 16:53 73.4 53.6 50 29.86 WNW 14 21 Clear --- Fort Lauderdale, FL Map
Honolulu WEATHER PHNL 12/02/2019 16:53 82.4 64.4 55 29.99 NE 11 11 Broken Clouds --- Honolulu, HI Map
JFK Airport WEATHER KJFK 12/02/2019 16:51 32.0 32.0 100 29.49 N 20 28 0.01 JFK Airport, NYC Map
Key West WEATHER KEYW 12/02/2019 16:53 77.0 64.4 65 29.93 NW 19 25 Few Clouds --- Key West, FL Map
Los Angeles WEATHER KLAX 12/02/2019 16:53 66.2 42.8 43 30.06 WSW 9 9 Broken Clouds --- Los Angeles, CA Map
Louisville WEATHER KSDF 12/02/2019 16:56 35.6 28.4 75 30.05 WNW 17 17 Overcast --- Louisville, KY Map
Minneapolis WEATHER KMSP 12/02/2019 16:53 26.6 15.8 63 30.02 SSW 6 6 Broken Clouds --- Minneapolis, MN Map
Morgantown WEATHER KMGW 12/02/2019 16:53 37.4 33.8 87 29.75 N 3 3 Overcast 0.01 Morgantown, WV Map
New Orleans WEATHER KNEW 12/02/2019 15:53 55.4 32.0 41 30.12 NNW 13 13 Clear --- New Orleans, LA Map
New York City WEATHER KNYC 12/02/2019 17:01 33.8 30.2 86 29.53 N 8 16 0.00 New York, NY Map
Omaha WEATHER KOMA 12/02/2019 16:52 39.2 15.8 38 30.05 S 14 14 Scattered Clouds --- Omaha, NE Map
Philadelphia WEATHER KPHL 12/02/2019 16:54 35.6 32.0 87 29.57 NNW 11 20 Overcast 0.00 Philadelphia, PA Map
Pittsburgh WEATHER KPIT 12/02/2019 16:51 35.6 30.2 80 29.75 NNW 17 17 Overcast 0.00 Pittsburgh, PA Map
Seattle WEATHER KSEA 12/02/2019 16:53 50.0 39.2 66 30.13 W 3 3 Broken Clouds --- Seattle, WA Map
San Francisco WEATHER KSFO 12/02/2019 16:56 57.2 51.8 82 30.02 E 12 12 Overcast 0.00 San Francisco, CA Map
Washington DC WEATHER KDCA 12/02/2019 15:52 42.8 35.6 75 29.61 NW 13 13 Overcast 0.00 Washington, DC Map